Alamo Heights, Texas
Current Conditions -  °F | °C
As of 12:51 AM on Monday 22 Dec 2014 (Local Time) from KSAT Reporting Station
Haze Haze  
Wind Chill: 56°   Ceiling: 500
Heat Index: 56°   Visibility: 6mi
Dew Point: 54°   Wind: 6mph
Humidity: 93%   Direction: 210°SSW
Pressure: 29.85"   Gusts: NA
Location:  29.4797°N, 98.4508°W
Report Text: KSAT 220651Z 21005KT 6SM BR OVC005 13/12 A2985 RMK AO2 SLP098 T01330122
Loading
Personal Weather Stations






























Interactive Weather Map New forecast layout! Learn more

10-Day Weather Forecast

Advertisements
Track Severe Weather on mobile